Time;durP1;ratioP1;P1;durP2;ratioP2;P2;SDS_P1;SDS_P2;PMS_P1;PMS_P2;Temp;Humidity;BMP_temperature;BMP_pressure;BME280_temperature;BME280_humidity;BME280_pressure;Samples;Min_cycle;Max_cycle;Signal;HPM_P1;HPM_P2
2023/03/01 00:01:17;;;;;;;137.60;46.70;;;;;;;-4.16;75.84;99773.32;104710;1273;97851;-64
2023/03/01 00:03:44;;;;;;;138.10;46.90;;;;;;;-4.15;75.90;99770.54;104529;1266;111261;-65
2023/03/01 00:06:12;;;;;;;148.50;51.60;;;;;;;-4.17;75.66;99768.50;104511;1267;98762;-65
2023/03/01 00:08:40;;;;;;;144.20;50.70;;;;;;;-4.22;75.78;99763.73;104628;1264;108460;-64
2023/03/01 00:11:17;;;;;;;148.10;50.10;;;;;;;-4.29;75.89;99767.38;104712;1273;97918;-65
2023/03/01 00:13:46;;;;;;;128.70;45.70;;;;;;;-4.35;75.83;99767.40;104736;1267;98338;-66
2023/03/01 00:16:17;;;;;;;128.60;44.50;;;;;;;-4.39;76.01;99773.93;104726;1273;112219;-65
2023/03/01 00:18:44;;;;;;;140.00;47.30;;;;;;;-4.44;76.27;99770.95;104504;1260;99335;-64
2023/03/01 00:21:12;;;;;;;134.20;45.90;;;;;;;-4.47;76.47;99766.55;104747;1273;109319;-65
2023/03/01 00:23:40;;;;;;;124.40;45.30;;;;;;;-4.52;76.39;99770.36;104394;1268;98108;-64
2023/03/01 00:26:12;;;;;;;125.60;45.70;;;;;;;-4.56;76.49;99768.14;104486;1272;98172;-64
2023/03/01 00:28:40;;;;;;;127.30;44.80;;;;;;;-4.64;76.60;99769.84;104349;1265;110853;-65
2023/03/01 00:31:16;;;;;;;105.70;40.80;;;;;;;-4.73;77.03;99771.23;104542;1264;99622;-65
2023/03/01 00:33:44;;;;;;;79.40;30.30;;;;;;;-4.79;78.02;99767.73;104576;1274;108633;-66
2023/03/01 00:36:14;;;;;;;130.20;43.30;;;;;;;-4.85;79.77;99769.89;104710;1272;98036;-66
2023/03/01 00:38:44;;;;;;;205.20;62.80;;;;;;;-4.89;79.07;99764.94;104587;1262;98280;-66
2023/03/01 00:41:15;;;;;;;190.60;60.80;;;;;;;-4.90;78.48;99766.13;104628;1262;111881;-66
2023/03/01 00:43:44;;;;;;;160.40;53.50;;;;;;;-4.90;78.32;99762.41;104643;1264;99111;-66
2023/03/01 00:46:14;;;;;;;166.90;53.90;;;;;;;-4.90;77.98;99759.73;104699;1274;108900;-65
2023/03/01 00:48:41;;;;;;;152.60;55.00;;;;;;;-4.89;77.88;99753.72;104675;1281;97904;-65
2023/03/01 00:51:21;;;;;;;140.90;51.20;;;;;;;-4.88;77.86;99747.02;104654;1272;97995;-65
2023/03/01 00:53:54;;;;;;;159.90;55.30;;;;;;;-4.86;77.84;99745.66;104715;1271;112307;-65
2023/03/01 00:56:21;;;;;;;147.80;52.10;;;;;;;-4.80;77.79;99745.72;104532;1266;99336;-64
2023/03/01 00:58:48;;;;;;;143.60;49.50;;;;;;;-4.75;77.77;99741.91;104782;1273;99201;-65
2023/03/01 01:01:21;;;;;;;138.00;46.60;;;;;;;-4.73;77.80;99738.61;104747;1273;97996;-65
2023/03/01 01:04:01;;;;;;;138.80;47.00;;;;;;;-4.67;78.02;99742.52;104348;1263;384027;-66
2023/03/01 01:06:35;;;;;;;115.60;41.90;;;;;;;-4.66;77.54;99741.21;104623;1257;111346;-66
2023/03/01 01:09:05;;;;;;;110.70;40.50;;;;;;;-4.66;77.78;99733.64;104961;1272;99178;-65
2023/03/01 01:11:35;;;;;;;115.40;42.20;;;;;;;-4.63;77.64;99734.13;104637;1262;108837;-64
2023/03/01 01:14:02;;;;;;;114.90;42.20;;;;;;;-4.70;77.44;99741.81;104726;1271;97890;-66
2023/03/01 01:16:29;;;;;;;127.50;43.30;;;;;;;-4.79;77.57;99745.20;104944;1281;98431;-65
2023/03/01 01:18:57;;;;;;;120.50;42.80;;;;;;;-4.80;78.10;99731.98;104918;1262;98312;-65
2023/03/01 01:21:26;;;;;;;132.90;45.70;;;;;;;-4.82;78.09;99732.17;104927;1271;99358;-65
2023/03/01 01:23:54;;;;;;;123.50;42.50;;;;;;;-4.89;78.10;99735.77;104616;1273;107604;-65
2023/03/01 01:26:24;;;;;;;122.60;44.80;;;;;;;-4.96;78.30;99738.52;104936;1270;97919;-65
2023/03/01 01:28:53;;;;;;;135.90;45.90;;;;;;;-5.02;78.40;99734.73;104544;1272;98258;-65
2023/03/01 01:31:20;;;;;;;151.80;47.40;;;;;;;-5.03;78.55;99733.45;104743;1267;112276;-65
2023/03/01 01:33:47;;;;;;;130.80;48.70;;;;;;;-5.06;78.55;99731.23;104756;1271;99531;-65
2023/03/01 01:36:14;;;;;;;136.40;50.80;;;;;;;-5.07;78.55;99730.40;104787;1268;99340;-65
2023/03/01 01:38:42;;;;;;;136.40;49.30;;;;;;;-5.10;78.64;99728.59;104876;1262;97902;-65
2023/03/01 01:41:13;;;;;;;147.10;48.80;;;;;;;-5.13;78.64;99720.57;104880;1262;97922;-64
2023/03/01 01:43:41;;;;;;;;;;;;;;;-5.19;78.56;99714.45;104785;1264;112132;-65
2023/03/01 01:46:30;;;;;;;105.60;37.60;;;;;;;-5.23;78.57;99713.59;104500;1266;98185;-65
2023/03/01 01:49:05;;;;;;;103.30;37.70;;;;;;;-5.27;78.65;99711.19;104681;1263;108771;-65
2023/03/01 01:51:41;;;;;;;115.90;39.90;;;;;;;-5.31;78.87;99708.42;104807;1271;97915;-64
2023/03/01 01:54:20;;;;;;;130.70;44.00;;;;;;;-5.32;79.14;99709.07;104610;1263;98508;-64
2023/03/01 01:56:59;;;;;;;138.10;46.70;;;;;;;-5.34;79.18;99710.16;104438;1281;111115;-64
2023/03/01 01:59:30;;;;;;;142.50;50.00;;;;;;;-5.32;79.14;99709.19;104588;1266;98961;-65
2023/03/01 02:02:01;;;;;;;146.90;52.40;;;;;;;-5.26;79.17;99708.73;104556;1276;107749;-66
2023/03/01 02:04:30;;;;;;;153.20;53.20;;;;;;;-5.20;79.23;99708.91;104917;1263;97896;-63
2023/03/01 02:07:05;;;;;;;162.30;54.40;;;;;;;-5.13;79.52;99708.11;104628;1266;99957;-66
2023/03/01 02:09:34;;;;;;;157.90;55.80;;;;;;;-5.04;79.31;99706.33;104609;1270;111268;-65
2023/03/01 02:12:04;;;;;;;152.80;54.70;;;;;;;-5.00;78.75;99704.45;104939;1261;99846;-65
2023/03/01 02:14:31;;;;;;;140.80;48.40;;;;;;;-4.98;78.78;99701.64;104635;1281;105630;-65
2023/03/01 02:16:58;;;;;;;140.10;48.40;;;;;;;-4.94;78.87;99697.55;104653;1264;98069;-65
2023/03/01 02:19:51;;;;;;;129.40;48.50;;;;;;;-4.91;78.94;99692.61;104573;1273;97878;-65
2023/03/01 02:22:31;;;;;;;127.20;46.90;;;;;;;-4.90;79.04;99697.48;104874;1263;112179;-66
2023/03/01 02:25:19;;;;;;;126.40;46.10;;;;;;;-4.87;78.78;99697.18;104840;1271;99228;-65
2023/03/01 02:27:52;;;;;;;141.50;48.80;;;;;;;-4.96;78.48;99697.11;104501;1274;107692;-64
2023/03/01 02:30:22;;;;;;;152.20;50.70;;;;;;;-4.98;78.62;99686.87;104589;1266;98431;-65
2023/03/01 02:32:50;;;;;;;167.20;51.90;;;;;;;-5.00;78.85;99679.40;104866;1264;98514;-65
2023/03/01 02:35:20;;;;;;;137.80;48.20;;;;;;;-5.02;78.84;99678.30;104644;1276;111264;-65
2023/03/01 02:37:48;;;;;;;132.50;48.80;;;;;;;-5.05;78.85;99682.58;104639;1263;99147;-65
2023/03/01 02:40:18;;;;;;;135.90;44.80;;;;;;;-5.09;79.07;99682.27;104948;1259;109770;-65
2023/03/01 02:42:53;;;;;;;129.60;44.40;;;;;;;-5.11;79.03;99681.32;104879;1263;97899;-66
2023/03/01 02:45:22;;;;;;;132.60;45.50;;;;;;;-5.13;79.20;99686.85;104929;1271;98098;-65
2023/03/01 02:47:53;;;;;;;122.40;44.30;;;;;;;-5.19;78.97;99686.48;104653;1273;109977;-66
2023/03/01 02:50:29;;;;;;;133.60;47.90;;;;;;;-5.26;78.99;99685.93;104910;1263;99204;-65
2023/03/01 02:53:34;;;;;;;149.50;49.70;;;;;;;-5.31;79.16;99680.72;104668;1271;107800;-64
2023/03/01 02:56:01;;;;;;;126.20;45.50;;;;;;;-5.33;79.07;99680.16;104715;1273;98185;-65
2023/03/01 02:58:28;;;;;;;121.30;43.10;;;;;;;-5.34;79.34;99679.45;104364;1276;99547;-65
2023/03/01 03:00:56;;;;;;;135.30;46.90;;;;;;;-5.38;79.32;99685.68;104709;1263;99176;-65
2023/03/01 03:03:23;;;;;;;132.30;47.10;;;;;;;-5.45;79.27;99689.73;104718;1272;99221;-65
2023/03/01 03:05:50;;;;;;;154.80;55.30;;;;;;;-5.51;79.68;99686.52;104617;1271;97982;-64
2023/03/01 03:08:23;;;;;;;163.20;59.10;;;;;;;-5.52;79.90;99683.66;104620;1263;99308;-65
2023/03/01 03:10:51;;;;;;;182.80;61.30;;;;;;;-5.49;79.87;99678.82;104504;1267;98640;-65
2023/03/01 03:13:18;;;;;;;177.80;67.40;;;;;;;-5.45;79.87;99677.11;104541;1263;97983;-64
2023/03/01 03:15:46;;;;;;;175.40;65.90;;;;;;;-5.40;80.04;99674.56;104473;1268;99090;-65
2023/03/01 03:18:16;;;;;;;176.90;64.50;;;;;;;-5.34;79.87;99673.16;104600;1263;99188;-64
2023/03/01 03:20:45;;;;;;;163.60;58.50;;;;;;;-5.27;79.87;99676.00;104618;1263;98666;-64
2023/03/01 03:23:13;;;;;;;160.00;57.60;;;;;;;-5.17;79.75;99681.11;104475;1267;99914;-65
2023/03/01 03:25:40;;;;;;;161.30;53.20;;;;;;;-5.11;79.32;99676.59;104708;1257;111264;-66
2023/03/01 03:28:10;;;;;;;127.40;48.40;;;;;;;-5.07;79.32;99671.20;104680;1265;97977;-64
2023/03/01 03:30:40;;;;;;;156.40;52.90;;;;;;;-5.03;79.06;99672.83;104255;1281;107244;-65
2023/03/01 03:33:09;;;;;;;148.80;53.60;;;;;;;-5.10;78.56;99678.00;104906;1268;98062;-66
2023/03/01 03:35:47;;;;;;;166.00;60.40;;;;;;;-5.22;78.73;99678.91;104938;1258;97940;-67
2023/03/01 03:38:18;;;;;;;162.30;60.20;;;;;;;-5.33;78.67;99675.39;104644;1273;112129;-67
2023/03/01 03:40:50;;;;;;;184.20;64.70;;;;;;;-5.40;79.02;99679.40;104894;1262;98987;-66
2023/03/01 03:43:20;;;;;;;180.80;64.90;;;;;;;-5.43;79.47;99680.23;104877;1263;108604;-66
2023/03/01 03:45:49;;;;;;;194.40;63.50;;;;;;;-5.45;79.58;99677.08;104899;1263;97921;-67
2023/03/01 03:48:17;;;;;;;164.20;59.60;;;;;;;-5.45;79.75;99671.45;104947;1257;98314;-67
2023/03/01 03:50:49;;;;;;;170.10;61.10;;;;;;;-5.46;79.80;99666.13;104906;1263;112099;-66
2023/03/01 03:53:16;;;;;;;164.50;59.90;;;;;;;-5.48;79.59;99670.53;104662;1264;98011;-66
2023/03/01 03:55:44;;;;;;;167.60;58.80;;;;;;;-5.54;79.48;99676.39;104813;1264;99232;-65
2023/03/01 03:58:11;;;;;;;173.60;58.50;;;;;;;-5.62;79.50;99679.14;104733;1264;97983;-65
2023/03/01 04:00:43;;;;;;;173.20;58.60;;;;;;;-5.66;79.74;99676.48;104696;1262;99224;-66
2023/03/01 04:03:12;;;;;;;187.70;61.40;;;;;;;-5.68;79.82;99669.79;104909;1263;111675;-65
2023/03/01 04:05:40;;;;;;;184.90;59.30;;;;;;;-5.71;79.83;99660.25;104880;1262;99239;-66
2023/03/01 04:08:08;;;;;;;176.20;56.90;;;;;;;-5.74;79.95;99656.63;104572;1273;108300;-65
2023/03/01 04:10:38;;;;;;;181.60;62.10;;;;;;;-5.79;80.07;99657.41;104600;1270;97985;-65
2023/03/01 04:13:07;;;;;;;198.70;67.80;;;;;;;-5.82;80.20;99655.77;104527;1259;98353;-66
2023/03/01 04:15:35;;;;;;;197.00;72.60;;;;;;;-5.82;80.35;99658.14;104858;1273;112083;-64
2023/03/01 04:18:03;;;;;;;195.40;74.60;;;;;;;-5.80;80.30;99665.80;104510;1278;99669;-64
2023/03/01 04:20:34;;;;;;;213.80;76.90;;;;;;;-5.75;80.44;99665.25;104917;1263;108513;-64
2023/03/01 04:23:19;;;;;;;;;;;;;;;-5.69;80.37;99666.70;104812;1264;98824;-64
2023/03/01 04:25:55;;;;;;;220.50;78.00;;;;;;;-5.63;80.23;99667.23;104846;1271;98224;-64
2023/03/01 04:28:29;;;;;;;194.80;69.70;;;;;;;-5.63;80.10;99665.02;104844;1269;112254;-64
2023/03/01 04:30:58;;;;;;;192.20;71.50;;;;;;;-5.61;80.02;99666.86;104877;1267;99184;-64
2023/03/01 04:33:25;;;;;;;194.50;66.00;;;;;;;-5.57;80.00;99674.39;104555;1265;107286;-64
2023/03/01 04:35:52;;;;;;;169.50;60.90;;;;;;;-5.55;80.01;99678.08;104820;1261;97928;-64
2023/03/01 04:38:21;;;;;;;168.30;56.50;;;;;;;-5.58;79.67;99682.67;104822;1263;98002;-64
2023/03/01 04:40:48;;;;;;;168.60;61.30;;;;;;;-5.63;80.12;99683.00;104642;1264;111924;-64
2023/03/01 04:43:15;;;;;;;165.50;60.70;;;;;;;-5.68;80.10;99682.83;104812;1263;98078;-66
2023/03/01 04:45:45;;;;;;;148.80;56.20;;;;;;;-5.72;80.39;99685.91;104744;1264;98049;-68
2023/03/01 04:48:15;;;;;;;154.40;55.20;;;;;;;-5.74;80.59;99680.33;104932;1257;97892;-65
2023/03/01 04:50:47;;;;;;;154.60;55.20;;;;;;;-5.74;80.66;99670.52;104646;1270;99460;-64
2023/03/01 04:53:20;;;;;;;168.10;59.20;;;;;;;-5.74;80.89;99670.22;104489;1257;111351;-64
2023/03/01 04:55:51;;;;;;;167.20;59.10;;;;;;;-5.74;80.74;99669.48;104793;1264;99277;-64
2023/03/01 04:58:28;;;;;;;128.00;48.20;;;;;;;-5.82;80.90;99677.63;104599;1276;107420;-64
2023/03/01 05:01:00;;;;;;;155.50;55.20;;;;;;;-5.87;81.00;99676.13;104452;1265;98001;-64
2023/03/01 05:03:28;;;;;;;146.80;55.00;;;;;;;-5.88;81.01;99671.58;104898;1257;97918;-64
2023/03/01 05:05:59;;;;;;;161.30;55.30;;;;;;;-5.88;81.20;99676.95;104569;1257;98008;-64
2023/03/01 05:08:26;;;;;;;152.80;54.90;;;;;;;-5.89;81.20;99672.60;104666;1263;99264;-64
2023/03/01 05:10:54;;;;;;;151.60;54.30;;;;;;;-5.93;80.98;99665.86;104665;1257;108577;-64
2023/03/01 05:13:21;;;;;;;159.10;54.60;;;;;;;-5.97;81.11;99665.28;104605;1257;99211;-64
2023/03/01 05:15:54;;;;;;;137.80;49.20;;;;;;;-5.99;81.08;99663.34;104744;1273;97951;-64
2023/03/01 05:18:26;;;;;;;143.50;47.10;;;;;;;-6.01;81.22;99660.85;104602;1257;112026;-64
2023/03/01 05:20:56;;;;;;;147.30;50.70;;;;;;;-5.99;81.29;99664.00;104883;1267;99198;-64
2023/03/01 05:23:23;;;;;;;127.50;48.30;;;;;;;-5.97;81.31;99657.84;104757;1272;108901;-66
2023/03/01 05:25:52;;;;;;;126.40;45.50;;;;;;;-5.90;81.23;99653.55;104863;1263;98693;-65
2023/03/01 05:28:20;;;;;;;112.10;41.80;;;;;;;-5.79;82.22;99652.52;104477;1263;99221;-65
2023/03/01 05:30:47;;;;;;;141.50;49.80;;;;;;;-5.68;82.03;99653.93;104497;1267;111884;-65
2023/03/01 05:33:14;;;;;;;132.30;47.30;;;;;;;-5.61;81.73;99651.20;104471;1270;97915;-65
2023/03/01 05:35:43;;;;;;;130.10;47.80;;;;;;;-5.55;81.88;99652.05;104811;1263;97950;-65
2023/03/01 05:38:15;;;;;;;114.70;45.10;;;;;;;-5.47;81.87;99655.13;104383;1270;98026;-66
2023/03/01 05:40:43;;;;;;;116.10;41.80;;;;;;;-5.37;81.90;99652.98;104510;1266;98291;-66
2023/03/01 05:43:11;;;;;;;115.50;38.00;;;;;;;-5.24;81.61;99656.98;104839;1272;111716;-64
2023/03/01 05:45:40;;;;;;;105.20;37.40;;;;;;;-5.13;81.58;99656.55;104550;1276;98848;-66
2023/03/01 05:48:08;;;;;;;95.80;37.00;;;;;;;-5.06;81.31;99656.46;104292;1281;107890;-64
2023/03/01 05:50:41;;;;;;;86.30;37.60;;;;;;;-5.06;80.80;99659.05;104621;1273;98084;-65
2023/03/01 05:53:12;;;;;;;132.80;50.50;;;;;;;-5.17;80.64;99665.59;104862;1271;99192;-66
2023/03/01 05:55:39;;;;;;;156.50;65.80;;;;;;;-5.24;80.67;99665.92;104813;1262;112214;-63
2023/03/01 05:58:11;;;;;;;139.90;58.30;;;;;;;-5.28;80.56;99664.20;104777;1264;99163;-66
2023/03/01 06:00:38;;;;;;;139.20;52.30;;;;;;;-5.35;80.95;99664.17;104843;1262;109004;-64
2023/03/01 06:03:05;;;;;;;155.90;63.80;;;;;;;-5.41;81.07;99664.48;104596;1262;97944;-64
2023/03/01 06:05:32;;;;;;;115.00;51.40;;;;;;;-5.46;81.33;99663.82;104729;1262;97912;-66
2023/03/01 06:08:01;;;;;;;159.00;64.00;;;;;;;-5.51;81.63;99661.65;104718;1261;98004;-66
2023/03/01 06:10:29;;;;;;;199.60;78.30;;;;;;;-5.53;81.56;99661.70;104840;1261;98789;-65
2023/03/01 06:12:56;;;;;;;226.30;84.20;;;;;;;-5.53;81.68;99663.06;104610;1267;107530;-66
2023/03/01 06:15:24;;;;;;;208.30;74.80;;;;;;;-5.49;81.77;99660.70;104862;1267;98373;-65
2023/03/01 06:17:54;;;;;;;202.80;76.80;;;;;;;-5.44;81.79;99664.10;104644;1265;98314;-65
2023/03/01 06:20:26;;;;;;;186.60;72.80;;;;;;;-5.40;81.73;99664.81;104696;1260;112249;-65
2023/03/01 06:22:53;;;;;;;216.50;79.80;;;;;;;-5.36;81.88;99665.08;104973;1261;99744;-65
2023/03/01 06:25:25;;;;;;;239.70;84.90;;;;;;;-5.32;81.99;99664.71;104781;1274;99081;-65
2023/03/01 06:27:52;;;;;;;246.60;91.90;;;;;;;-5.23;81.92;99670.22;104488;1276;98120;-65
2023/03/01 06:30:22;;;;;;;215.70;83.60;;;;;;;-5.16;81.99;99677.02;104649;1258;99219;-66
2023/03/01 06:32:50;;;;;;;220.70;83.30;;;;;;;-5.05;82.39;99679.17;104942;1263;111850;-64
2023/03/01 06:35:18;;;;;;;243.40;91.20;;;;;;;-4.92;82.39;99685.10;104885;1267;99244;-64
2023/03/01 06:37:47;;;;;;;211.40;82.70;;;;;;;-4.76;82.39;99684.55;104559;1264;108282;-64
2023/03/01 06:40:15;;;;;;;204.60;81.00;;;;;;;-4.56;82.37;99681.86;104556;1260;97991;-65
2023/03/01 06:42:48;;;;;;;184.60;62.60;;;;;;;-4.44;82.21;99684.12;104685;1264;98797;-65
2023/03/01 06:45:17;;;;;;;172.30;57.90;;;;;;;-4.36;82.13;99681.20;104815;1261;109966;-65
2023/03/01 06:47:45;;;;;;;148.80;53.30;;;;;;;-4.23;81.92;99679.11;104860;1261;99488;-66
2023/03/01 06:50:12;;;;;;;135.70;52.50;;;;;;;-4.14;81.51;99678.86;104904;1263;98052;-65
2023/03/01 06:52:39;;;;;;;157.40;54.80;;;;;;;-4.10;81.22;99681.91;104551;1264;97999;-65
2023/03/01 06:55:07;;;;;;;150.50;51.00;;;;;;;-4.09;81.22;99681.13;104739;1261;98479;-65
2023/03/01 06:57:34;;;;;;;152.20;52.00;;;;;;;-4.08;81.17;99680.11;104646;1264;111852;-65
2023/03/01 07:00:03;;;;;;;135.80;49.90;;;;;;;-4.01;81.21;99680.88;104903;1261;99311;-64
2023/03/01 07:02:30;;;;;;;136.00;50.50;;;;;;;-3.91;81.32;99683.23;104602;1267;107564;-65
2023/03/01 07:04:57;;;;;;;119.50;46.30;;;;;;;-3.82;81.18;99685.41;104746;1264;97900;-65
2023/03/01 07:07:24;;;;;;;119.40;47.00;;;;;;;-3.71;81.11;99678.23;104885;1271;97901;-65
2023/03/01 07:09:53;;;;;;;123.40;48.80;;;;;;;-3.61;81.01;99678.89;104713;1270;99192;-66
2023/03/01 07:12:20;;;;;;;121.70;48.10;;;;;;;-3.49;81.00;99679.39;104751;1261;97884;-65
2023/03/01 07:14:47;;;;;;;120.90;46.20;;;;;;;-3.36;80.91;99673.41;104640;1270;98814;-65
2023/03/01 07:17:14;;;;;;;119.70;48.00;;;;;;;-3.16;81.29;99673.85;104848;1257;99164;-65
2023/03/01 07:19:41;;;;;;;107.60;42.60;;;;;;;-2.95;80.77;99671.80;104958;1256;98817;-66
2023/03/01 07:22:09;;;;;;;94.00;40.20;;;;;;;-2.74;80.33;99672.42;104813;1257;97861;-65
2023/03/01 07:24:36;;;;;;;89.90;31.80;;;;;;;-2.58;79.20;99672.16;104642;1273;97972;-65
2023/03/01 07:27:03;;;;;;;89.50;30.90;;;;;;;-2.45;78.53;99671.73;104839;1270;97896;-66
2023/03/01 07:29:30;;;;;;;77.60;30.70;;;;;;;-2.30;78.37;99670.73;104525;1274;97987;-67
2023/03/01 07:31:57;;;;;;;62.20;23.40;;;;;;;-2.14;77.74;99669.94;104990;1261;99209;-66
2023/03/01 07:34:24;;;;;;;61.20;27.20;;;;;;;-2.01;76.72;99667.30;104961;1270;98399;-65
2023/03/01 07:36:51;;;;;;;70.10;28.80;;;;;;;-1.92;76.50;99662.60;104620;1261;108539;-65
2023/03/01 07:39:18;;;;;;;63.50;27.70;;;;;;;-1.82;76.46;99660.70;104742;1257;98705;-66
2023/03/01 07:41:45;;;;;;;82.10;32.10;;;;;;;-1.66;76.76;99657.91;104823;1257;97970;-66
2023/03/01 07:44:12;;;;;;;63.50;29.60;;;;;;;-1.49;76.18;99653.64;104948;1261;97892;-65
2023/03/01 07:46:39;;;;;;;65.40;27.40;;;;;;;-1.31;76.37;99658.06;104850;1273;98059;-65
2023/03/01 07:49:06;;;;;;;66.70;27.00;;;;;;;-1.15;75.22;99658.20;104937;1270;97944;-66
2023/03/01 07:51:34;;;;;;;55.80;26.80;;;;;;;-1.05;74.59;99655.06;104790;1261;97898;-66
2023/03/01 07:54:01;;;;;;;52.00;23.80;;;;;;;-0.95;74.41;99649.56;104674;1257;97955;-66
2023/03/01 07:56:28;;;;;;;51.00;23.40;;;;;;;-0.73;74.22;99645.66;104813;1271;97969;-65
2023/03/01 07:58:56;;;;;;;69.00;27.10;;;;;;;-0.45;74.35;99643.98;105011;1261;97970;-65
2023/03/01 08:01:23;;;;;;;61.20;25.10;;;;;;;-0.22;72.23;99641.64;104748;1270;97951;-65
2023/03/01 08:03:50;;;;;;;51.10;23.80;;;;;;;-0.13;71.86;99633.77;104788;1274;97982;-65
2023/03/01 08:06:18;;;;;;;71.20;29.50;;;;;;;0.03;72.45;99629.88;104790;1257;98403;-67
2023/03/01 08:08:45;;;;;;;54.60;23.80;;;;;;;0.34;71.26;99624.14;104816;1270;99570;-65
2023/03/01 08:11:14;;;;;;;60.00;26.10;;;;;;;0.59;71.22;99615.48;104875;1260;98396;-65
2023/03/01 08:13:42;;;;;;;60.70;28.40;;;;;;;0.99;70.97;99611.86;105023;1260;98427;-66
2023/03/01 08:16:14;;;;;;;54.40;25.00;;;;;;;1.41;69.36;99609.52;104930;1257;97903;-65
2023/03/01 08:18:42;;;;;;;58.40;24.90;;;;;;;1.76;69.90;99608.44;104991;1263;97988;-65
2023/03/01 08:21:12;;;;;;;42.60;18.60;;;;;;;2.13;67.89;99611.07;104842;1268;112123;-65
2023/03/01 08:23:40;;;;;;;47.60;22.60;;;;;;;2.20;65.93;99614.29;104885;1257;99224;-65
2023/03/01 08:26:16;;;;;;;40.10;19.80;;;;;;;2.25;66.37;99615.45;104617;1265;107608;-65
2023/03/01 08:28:44;;;;;;;46.00;21.10;;;;;;;2.31;63.55;99620.46;104435;1264;98062;-65
2023/03/01 08:31:23;;;;;;;46.20;20.60;;;;;;;2.27;63.84;99622.36;104632;1267;98000;-65
2023/03/01 08:33:55;;;;;;;46.40;21.70;;;;;;;2.56;65.48;99616.02;104648;1265;111450;-65
2023/03/01 08:36:30;;;;;;;78.60;28.70;;;;;;;2.93;64.17;99613.18;104973;1261;99041;-64
2023/03/01 08:38:58;;;;;;;49.50;22.70;;;;;;;3.34;64.68;99609.80;104860;1261;108543;-65
2023/03/01 08:41:26;;;;;;;43.60;20.40;;;;;;;3.84;62.64;99607.55;104837;1271;98069;-65
2023/03/01 08:43:58;;;;;;;35.30;16.80;;;;;;;4.07;61.99;99606.33;104931;1263;97953;-65
2023/03/01 08:46:34;;;;;;;41.50;19.70;;;;;;;4.27;61.25;99605.39;104454;1266;111944;-63
2023/03/01 08:49:21;;;;;;;35.80;18.00;;;;;;;4.51;58.92;99604.16;104683;1261;99285;-65
2023/03/01 08:51:49;;;;;;;48.50;21.30;;;;;;;4.65;58.18;99602.17;104588;1261;108202;-68
2023/03/01 08:54:20;;;;;;;38.90;19.50;;;;;;;4.81;57.36;99604.89;104923;1261;97939;-64
2023/03/01 08:56:47;;;;;;;30.00;14.00;;;;;;;5.06;58.52;99602.91;104542;1265;99122;-65
2023/03/01 08:59:17;;;;;;;39.40;18.60;;;;;;;5.35;55.76;99604.04;104646;1265;111201;-65
2023/03/01 09:01:44;;;;;;;26.50;14.30;;;;;;;5.48;56.02;99606.02;104653;1265;97958;-64
2023/03/01 09:04:12;;;;;;;27.60;15.50;;;;;;;5.66;55.29;99605.33;104860;1261;97992;-65
2023/03/01 09:06:39;;;;;;;33.10;17.60;;;;;;;6.05;56.41;99603.28;104709;1264;98078;-65
2023/03/01 09:09:14;;;;;;;43.30;23.00;;;;;;;6.66;56.97;99600.63;104978;1261;98703;-65
2023/03/01 09:11:43;;;;;;;47.80;23.00;;;;;;;7.29;55.44;99597.73;104659;1263;111504;-65
2023/03/01 09:14:12;;;;;;;40.50;20.90;;;;;;;7.43;51.08;99599.19;104977;1260;99043;-65
2023/03/01 09:16:39;;;;;;;38.20;21.00;;;;;;;7.47;54.10;99600.94;104557;1267;107604;-65
2023/03/01 09:19:06;;;;;;;37.10;19.70;;;;;;;7.93;52.88;99596.89;104603;1263;98174;-65
2023/03/01 09:21:33;;;;;;;29.70;17.10;;;;;;;8.45;53.09;99593.30;104949;1262;97898;-65
2023/03/01 09:24:15;;;;;;;20.10;10.50;;;;;;;8.79;47.31;99591.15;104658;1264;110752;-65
2023/03/01 09:26:46;;;;;;;45.10;18.20;;;;;;;8.31;44.94;99594.58;104982;1257;100288;-66
2023/03/01 09:29:16;;;;;;;19.80;10.80;;;;;;;8.02;45.11;99592.52;104688;1264;108067;-65
2023/03/01 09:31:43;;;;;;;16.70;8.60;;;;;;;8.03;43.97;99591.39;104873;1260;97913;-66
2023/03/01 09:34:10;;;;;;;21.00;11.20;;;;;;;7.74;43.41;99591.55;104879;1261;97905;-66
2023/03/01 09:36:38;;;;;;;30.10;16.20;;;;;;;7.77;43.69;99587.33;104946;1263;97908;-65
2023/03/01 09:39:08;;;;;;;24.00;12.20;;;;;;;7.80;43.02;99585.05;104953;1256;97828;-65
2023/03/01 09:42:01;;;;;;;17.90;11.60;;;;;;;7.59;42.60;99586.77;104618;1267;108083;-65
2023/03/01 09:44:51;;;;;;;27.30;13.40;;;;;;;7.44;42.35;99591.29;104576;1264;99442;-65
2023/03/01 09:47:27;;;;;;;29.10;14.80;;;;;;;7.43;42.92;99583.65;104945;1261;97985;-66
2023/03/01 09:49:57;;;;;;;22.90;11.40;;;;;;;7.43;42.96;99585.83;104940;1262;111350;-65
2023/03/01 09:52:42;;;;;;;19.30;11.40;;;;;;;7.63;43.78;99583.95;104822;1256;98784;-66
2023/03/01 09:55:17;;;;;;;22.50;13.50;;;;;;;7.98;42.25;99589.91;104905;1271;108508;-65
2023/03/01 09:58:02;;;;;;;33.00;16.00;;;;;;;8.13;42.17;99590.56;104572;1266;97954;-65
2023/03/01 10:00:49;;;;;;;24.10;12.60;;;;;;;8.19;41.20;99589.90;104703;1271;97906;-66
2023/03/01 10:03:28;;;;;;;24.10;13.80;;;;;;;8.03;41.05;99594.38;104591;1265;111892;-66
2023/03/01 10:06:05;;;;;;;20.10;10.80;;;;;;;8.22;42.05;99585.02;104770;1263;99357;-66
2023/03/01 10:08:54;;;;;;;30.90;16.70;;;;;;;8.22;40.78;99586.55;104717;1263;108230;-70
2023/03/01 10:11:31;;;;;;;39.90;20.10;;;;;;;8.20;40.45;99589.17;104484;1273;98068;-67
2023/03/01 10:14:07;;;;;;;20.50;12.60;;;;;;;8.20;40.21;99586.19;104975;1263;97946;-66
2023/03/01 10:16:49;;;;;;;19.50;11.70;;;;;;;8.26;40.20;99583.51;105021;1261;111316;-66
2023/03/01 10:19:43;;;;;;;24.80;12.70;;;;;;;8.92;41.94;99578.09;104625;1265;98986;-66
2023/03/01 10:22:21;;;;;;;22.70;12.80;;;;;;;9.77;39.03;99576.02;104899;1263;108117;-65
2023/03/01 10:24:51;;;;;;;22.30;13.50;;;;;;;9.80;38.38;99572.44;104884;1260;97902;-65
2023/03/01 10:27:25;;;;;;;118.00;54.30;;;;;;;9.66;37.78;99562.86;104881;1260;98002;-65
2023/03/01 10:30:19;;;;;;;23.70;12.90;;;;;;;9.33;38.01;99560.55;104789;1261;112259;-65
2023/03/01 10:32:51;;;;;;;23.40;14.20;;;;;;;9.30;38.47;99557.45;104817;1270;99194;-66
2023/03/01 10:35:29;;;;;;;19.90;10.60;;;;;;;9.74;39.00;99551.02;104918;1261;108064;-66
2023/03/01 10:38:11;;;;;;;43.00;21.70;;;;;;;9.86;37.21;99553.87;104509;1257;99153;-66
2023/03/01 10:40:50;;;;;;;21.10;12.90;;;;;;;10.13;37.38;99557.09;104541;1264;99523;-64
2023/03/01 10:43:17;;;;;;;23.90;13.90;;;;;;;10.31;37.04;99554.88;104583;1267;111752;-65
2023/03/01 10:45:44;;;;;;;27.90;14.30;;;;;;;10.65;36.29;99553.67;104963;1261;97946;-66
2023/03/01 10:48:16;;;;;;;24.00;15.20;;;;;;;10.34;36.02;99553.70;104962;1257;97908;-66
2023/03/01 10:50:49;;;;;;;23.20;14.40;;;;;;;10.16;36.29;99549.56;104897;1263;97907;-66
2023/03/01 10:53:26;;;;;;;20.80;13.00;;;;;;;10.43;37.18;99549.41;104953;1261;99000;-65
2023/03/01 10:56:03;;;;;;;21.50;13.20;;;;;;;10.48;35.22;99549.24;104900;1267;112165;-65
2023/03/01 10:58:32;;;;;;;25.40;14.90;;;;;;;10.17;35.67;99549.16;104893;1272;99627;-65
2023/03/01 11:01:03;;;;;;;42.90;20.60;;;;;;;10.10;35.77;99540.04;104944;1261;108608;-66
2023/03/01 11:03:37;;;;;;;25.60;14.90;;;;;;;10.25;37.04;99543.33;104690;1261;98489;-65
2023/03/01 11:06:10;;;;;;;23.80;16.50;;;;;;;11.05;36.41;99532.17;104466;1258;98054;-65
2023/03/01 11:08:47;;;;;;;23.40;15.20;;;;;;;11.38;35.59;99531.70;104786;1261;112186;-65
2023/03/01 11:11:35;;;;;;;21.70;13.30;;;;;;;11.95;34.82;99524.59;104628;1257;98236;-65
2023/03/01 11:14:22;;;;;;;22.40;13.70;;;;;;;11.55;33.48;99523.41;104585;1264;108346;-64
2023/03/01 11:17:02;;;;;;;31.10;16.70;;;;;;;11.40;34.95;99519.92;104495;1260;98086;-64
2023/03/01 11:19:30;;;;;;;48.00;19.40;;;;;;;12.04;34.73;99521.80;104654;1258;98066;-64
2023/03/01 11:22:05;;;;;;;183.40;55.00;;;;;;;12.08;33.07;99520.41;104887;1273;112281;-65